createdAt,value
2022-08-07T00:02:37.371Z,17.80
2022-08-07T00:04:11.362Z,17.80
2022-08-07T00:06:51.562Z,17.80
2022-08-07T00:09:29.233Z,17.70
2022-08-07T00:12:02.709Z,17.70
2022-08-07T00:14:31.681Z,17.70
2022-08-07T00:17:01.766Z,17.60
2022-08-07T00:20:01.604Z,17.60
2022-08-07T00:22:34.547Z,17.60
2022-08-07T00:25:07.433Z,17.70
2022-08-07T00:27:53.188Z,17.60
2022-08-07T00:30:27.463Z,17.50
2022-08-07T00:33:00.029Z,17.40
2022-08-07T00:35:29.629Z,17.40
2022-08-07T00:37:58.777Z,17.40
2022-08-07T00:40:39.895Z,17.30
2022-08-07T00:44:01.715Z,17.30
2022-08-07T00:46:01.688Z,17.40
2022-08-07T00:48:30.991Z,17.40
2022-08-07T00:51:00.940Z,17.40
2022-08-07T00:53:39.162Z,17.30
2022-08-07T00:56:15.767Z,17.20
2022-08-07T00:58:46.865Z,17.20
2022-08-07T01:01:15.595Z,17.10
2022-08-07T01:03:56.344Z,17.10
2022-08-07T01:06:28.573Z,17.00
2022-08-07T01:09:00.809Z,17.10
2022-08-07T01:12:10.005Z,17.10
2022-08-07T01:14:28.475Z,17.00
2022-08-07T01:16:56.227Z,17.00
2022-08-07T01:19:24.888Z,16.90
2022-08-07T01:21:53.418Z,17.00
2022-08-07T01:24:23.078Z,16.90
2022-08-07T01:26:53.773Z,16.90
2022-08-07T01:29:27.695Z,16.90
2022-08-07T01:31:59.569Z,16.80
2022-08-07T01:34:31.141Z,16.80
2022-08-07T01:36:58.924Z,16.70
2022-08-07T01:39:41.266Z,16.80
2022-08-07T01:42:39.473Z,16.90
2022-08-07T01:45:04.290Z,16.90
2022-08-07T01:48:18.091Z,16.60
2022-08-07T01:50:22.823Z,16.50
2022-08-07T01:52:58.374Z,16.50
2022-08-07T01:55:33.665Z,16.50
2022-08-07T01:58:06.528Z,16.60
2022-08-07T02:01:09.415Z,16.40
2022-08-07T02:03:48.925Z,16.50
2022-08-07T02:06:31.396Z,16.60
2022-08-07T02:09:04.704Z,16.70
2022-08-07T02:12:04.213Z,16.60
2022-08-07T02:14:36.000Z,16.80
2022-08-07T02:17:04.579Z,16.90
2022-08-07T02:20:07.669Z,16.90
2022-08-07T02:22:25.814Z,16.90
2022-08-07T02:24:56.131Z,17.00
2022-08-07T02:27:26.476Z,17.00
2022-08-07T02:30:07.097Z,17.00
2022-08-07T02:32:39.634Z,17.10
2022-08-07T02:36:30.214Z,17.00
2022-08-07T02:38:15.801Z,17.10
2022-08-07T02:40:46.666Z,17.20
2022-08-07T02:43:15.589Z,17.20
2022-08-07T02:45:58.921Z,17.10
2022-08-07T02:48:30.065Z,17.10
2022-08-07T02:51:04.246Z,17.00
2022-08-07T02:53:39.002Z,16.90
2022-08-07T02:56:17.389Z,16.80
2022-08-07T02:58:53.943Z,16.70
2022-08-07T03:01:35.261Z,16.80
2022-08-07T03:04:07.762Z,16.70
2022-08-07T03:06:41.998Z,16.70
2022-08-07T03:09:12.114Z,16.80
2022-08-07T03:11:52.236Z,16.80
2022-08-07T03:14:25.821Z,16.90
2022-08-07T03:16:52.965Z,17.00
2022-08-07T03:19:20.778Z,17.00
2022-08-07T03:21:50.939Z,17.00
2022-08-07T03:24:27.540Z,17.10
2022-08-07T03:26:59.154Z,17.10
2022-08-07T03:29:33.929Z,17.20
2022-08-07T03:32:07.428Z,17.30
2022-08-07T03:34:47.253Z,17.30
2022-08-07T03:37:32.510Z,17.40
2022-08-07T03:40:15.524Z,17.40
2022-08-07T03:42:44.303Z,17.60
2022-08-07T03:45:12.750Z,17.50
2022-08-07T03:47:58.471Z,17.70
2022-08-07T03:50:28.673Z,17.90
2022-08-07T03:52:59.492Z,17.90
2022-08-07T03:55:52.887Z,17.90
2022-08-07T03:59:05.242Z,17.80
2022-08-07T04:01:07.594Z,18.00
2022-08-07T04:03:53.192Z,18.20
2022-08-07T04:06:36.163Z,18.30
2022-08-07T04:09:06.022Z,18.50
2022-08-07T04:12:28.508Z,19.00
2022-08-07T04:14:37.411Z,19.50
2022-08-07T04:17:19.951Z,20.20
2022-08-07T04:19:52.170Z,21.00
2022-08-07T04:22:29.010Z,21.40
2022-08-07T04:24:58.870Z,21.90
2022-08-07T04:27:28.770Z,22.20
2022-08-07T04:30:04.461Z,22.50
2022-08-07T04:32:35.103Z,22.90
2022-08-07T04:35:05.359Z,23.10
2022-08-07T04:37:52.705Z,23.40
2022-08-07T04:40:22.633Z,23.50
2022-08-07T04:43:01.253Z,23.80
2022-08-07T04:45:57.591Z,24.00
2022-08-07T04:48:56.697Z,24.20
2022-08-07T04:51:51.204Z,24.50
2022-08-07T04:54:31.752Z,24.80
2022-08-07T04:58:23.668Z,25.20
2022-08-07T05:00:56.128Z,25.60
2022-08-07T05:04:06.686Z,26.00
2022-08-07T05:06:54.680Z,26.40
2022-08-07T05:09:45.745Z,26.70
2022-08-07T05:12:27.303Z,27.60
2022-08-07T05:15:04.899Z,28.60
2022-08-07T05:17:52.868Z,29.80
2022-08-07T05:20:27.092Z,31.20
2022-08-07T05:22:59.736Z,32.40
2022-08-07T05:25:36.623Z,33.40
2022-08-07T05:28:22.740Z,34.20
2022-08-07T05:30:53.428Z,35.00
2022-08-07T05:33:21.801Z,35.40
2022-08-07T05:35:51.501Z,35.80
2022-08-07T05:38:58.095Z,36.30
2022-08-07T05:41:14.043Z,36.50
2022-08-07T05:44:08.710Z,37.00
2022-08-07T05:46:37.290Z,37.30
2022-08-07T05:49:11.975Z,37.40
2022-08-07T05:51:46.366Z,37.60
2022-08-07T05:54:30.905Z,37.60
2022-08-07T05:57:03.466Z,37.90
2022-08-07T05:59:38.740Z,38.00
2022-08-07T06:02:21.537Z,38.10
2022-08-07T06:04:59.563Z,38.30
2022-08-07T06:08:14.775Z,38.30
2022-08-07T06:10:15.805Z,38.50
2022-08-07T06:12:42.899Z,38.70
2022-08-07T06:15:16.463Z,38.80
2022-08-07T06:17:53.354Z,38.80
2022-08-07T06:20:31.825Z,38.90
2022-08-07T06:23:45.781Z,39.00
2022-08-07T06:26:01.515Z,38.90
2022-08-07T06:28:29.118Z,38.80
2022-08-07T06:30:58.303Z,39.00
2022-08-07T06:33:26.498Z,39.10
2022-08-07T06:36:13.326Z,39.20
2022-08-07T06:38:58.556Z,39.30
2022-08-07T06:42:00.677Z,39.40
2022-08-07T06:44:31.198Z,39.70
2022-08-07T06:47:12.086Z,39.70
2022-08-07T06:49:52.068Z,39.60
2022-08-07T06:52:32.095Z,39.60
2022-08-07T06:55:31.346Z,39.50
2022-08-07T06:58:04.244Z,39.40
2022-08-07T07:00:39.283Z,39.30
2022-08-07T07:03:13.569Z,39.20
2022-08-07T07:06:03.766Z,39.20
2022-08-07T07:08:33.172Z,39.20
2022-08-07T07:11:12.976Z,39.40
2022-08-07T07:13:57.532Z,39.70
2022-08-07T07:16:45.088Z,39.80
2022-08-07T07:19:57.605Z,39.90
2022-08-07T07:22:35.688Z,40.00
2022-08-07T07:26:30.894Z,40.20
2022-08-07T07:28:07.822Z,40.20
2022-08-07T07:30:59.093Z,40.10
2022-08-07T07:33:28.445Z,40.20
2022-08-07T07:36:04.593Z,40.30
2022-08-07T07:38:34.755Z,40.40
2022-08-07T07:41:08.649Z,40.60
2022-08-07T07:44:14.881Z,40.50
2022-08-07T07:46:40.124Z,40.70
2022-08-07T07:50:29.627Z,40.50
2022-08-07T07:52:08.200Z,40.60
2022-08-07T07:54:37.734Z,40.60
2022-08-07T07:57:08.984Z,40.70
2022-08-07T07:59:52.080Z,40.70
2022-08-07T08:02:35.424Z,40.80
2022-08-07T08:05:03.637Z,41.10
2022-08-07T08:07:35.635Z,41.40
2022-08-07T08:10:14.889Z,41.60
2022-08-07T08:13:00.238Z,41.80
2022-08-07T08:15:43.647Z,42.10
2022-08-07T08:18:24.393Z,42.50
2022-08-07T08:20:52.630Z,42.40
2022-08-07T08:23:41.342Z,41.00
2022-08-07T08:26:27.848Z,40.00
2022-08-07T08:28:56.921Z,39.50
2022-08-07T08:31:58.609Z,37.70
2022-08-07T08:34:27.140Z,36.00
2022-08-07T08:36:58.419Z,36.40
2022-08-07T08:39:39.694Z,37.90
2022-08-07T08:42:43.340Z,39.00
2022-08-07T08:45:14.094Z,38.40
2022-08-07T08:48:19.951Z,36.80
2022-08-07T08:51:14.656Z,35.20
2022-08-07T08:54:00.045Z,33.70
2022-08-07T08:56:53.977Z,32.70
2022-08-07T08:59:48.409Z,32.20
2022-08-07T09:02:36.576Z,32.20
2022-08-07T09:05:36.699Z,33.00
2022-08-07T09:08:17.806Z,34.70
2022-08-07T09:11:10.838Z,36.90
2022-08-07T09:13:59.194Z,39.10
2022-08-07T09:16:29.988Z,40.60
2022-08-07T09:19:00.664Z,41.40
2022-08-07T09:22:36.558Z,42.30
2022-08-07T09:25:27.930Z,42.90
2022-08-07T09:28:06.231Z,43.50
2022-08-07T09:31:13.364Z,43.60
2022-08-07T09:34:26.283Z,43.70
2022-08-07T09:37:47.858Z,43.80
2022-08-07T09:40:30.086Z,41.90
2022-08-07T09:43:00.884Z,39.00
2022-08-07T09:47:23.773Z,36.70
2022-08-07T09:48:56.175Z,34.80
2022-08-07T09:52:16.092Z,33.60
2022-08-07T09:54:51.293Z,32.50
2022-08-07T09:57:47.464Z,31.80
2022-08-07T10:00:29.867Z,31.70
2022-08-07T10:03:08.173Z,32.30
2022-08-07T10:06:00.767Z,33.10
2022-08-07T10:08:49.552Z,34.90
2022-08-07T10:12:01.259Z,36.50
2022-08-07T10:14:31.440Z,36.10
2022-08-07T10:17:24.176Z,35.20
2022-08-07T10:20:20.717Z,35.60
2022-08-07T10:22:55.188Z,35.70
2022-08-07T10:25:43.217Z,35.60
2022-08-07T10:28:19.059Z,35.70
2022-08-07T10:31:15.137Z,35.80
2022-08-07T10:34:15.089Z,35.10
2022-08-07T10:37:12.770Z,34.10
2022-08-07T10:40:02.894Z,33.00
2022-08-07T10:42:36.912Z,32.20
2022-08-07T10:45:44.862Z,31.60
2022-08-07T10:48:57.096Z,31.10
2022-08-07T10:51:39.178Z,30.50
2022-08-07T10:54:38.155Z,30.20
2022-08-07T10:57:13.822Z,29.80
2022-08-07T10:59:53.632Z,29.50
2022-08-07T11:02:35.822Z,29.40
2022-08-07T11:05:35.768Z,29.40
2022-08-07T11:08:45.852Z,30.00
2022-08-07T11:11:25.911Z,30.80
2022-08-07T11:14:44.639Z,31.30
2022-08-07T11:17:13.207Z,31.40
2022-08-07T11:19:58.226Z,31.30
2022-08-07T11:22:38.230Z,31.10
2022-08-07T11:25:30.558Z,31.00
2022-08-07T11:28:35.572Z,31.10
2022-08-07T11:32:02.097Z,31.10
2022-08-07T11:34:29.231Z,31.00
2022-08-07T11:37:58.318Z,30.80
2022-08-07T11:41:09.695Z,30.50
2022-08-07T11:44:12.048Z,30.40
2022-08-07T11:46:56.445Z,30.40
2022-08-07T11:50:11.145Z,30.30
2022-08-07T11:52:48.129Z,30.10
2022-08-07T11:56:18.457Z,29.90
2022-08-07T11:59:22.053Z,29.60
2022-08-07T12:02:20.569Z,29.30
2022-08-07T12:05:09.081Z,29.20
2022-08-07T12:08:03.696Z,29.00
2022-08-07T12:10:41.771Z,28.90
2022-08-07T12:13:42.163Z,29.00
2022-08-07T12:16:30.351Z,29.30
2022-08-07T12:19:14.770Z,29.40
2022-08-07T12:22:39.648Z,29.50
2022-08-07T12:26:00.802Z,29.50
2022-08-07T12:28:40.225Z,29.40
2022-08-07T12:31:53.271Z,29.20
2022-08-07T12:34:18.471Z,29.10
2022-08-07T12:36:49.514Z,29.00
2022-08-07T12:39:43.761Z,28.80
2022-08-07T12:42:13.013Z,28.60
2022-08-07T12:44:45.046Z,28.60
2022-08-07T12:47:31.132Z,28.30
2022-08-07T12:50:05.232Z,28.30
2022-08-07T12:53:01.210Z,28.10
2022-08-07T12:55:41.122Z,28.00
2022-08-07T12:58:35.258Z,27.90
2022-08-07T13:01:18.463Z,27.80
2022-08-07T13:04:34.289Z,27.70
2022-08-07T13:08:14.363Z,27.60
2022-08-07T13:10:51.434Z,27.60
2022-08-07T13:14:09.011Z,27.60
2022-08-07T13:16:46.706Z,27.50
2022-08-07T13:19:51.624Z,27.50
2022-08-07T13:22:28.375Z,27.60
2022-08-07T13:25:05.928Z,27.80
2022-08-07T13:28:12.659Z,28.00
2022-08-07T13:30:40.439Z,28.00
2022-08-07T13:34:29.963Z,28.10
2022-08-07T13:36:17.724Z,28.00
2022-08-07T13:38:58.855Z,28.00
2022-08-07T13:41:41.347Z,27.80
2022-08-07T13:44:10.701Z,27.90
2022-08-07T13:46:49.190Z,27.80
2022-08-07T13:50:35.436Z,27.80
2022-08-07T13:52:30.581Z,27.70
2022-08-07T13:55:00.780Z,27.70
2022-08-07T13:57:38.500Z,27.80
2022-08-07T14:00:08.656Z,27.80
2022-08-07T14:02:56.198Z,27.70
2022-08-07T14:05:24.959Z,27.50
2022-08-07T14:08:07.105Z,27.50
2022-08-07T14:10:42.407Z,27.40
2022-08-07T14:13:18.631Z,27.40
2022-08-07T14:15:53.244Z,27.30
2022-08-07T14:18:44.473Z,27.40
2022-08-07T14:22:03.462Z,27.40
2022-08-07T14:24:22.996Z,27.20
2022-08-07T14:26:58.663Z,27.30
2022-08-07T14:30:07.430Z,27.20
2022-08-07T14:32:25.860Z,27.30
2022-08-07T14:34:55.089Z,27.30
2022-08-07T14:37:36.415Z,27.30
2022-08-07T14:40:17.299Z,27.40
2022-08-07T14:43:56.962Z,27.40
2022-08-07T14:45:55.792Z,27.40
2022-08-07T14:48:27.697Z,27.40
2022-08-07T14:50:57.939Z,27.50
2022-08-07T14:54:05.668Z,27.30
2022-08-07T14:56:29.514Z,27.20
2022-08-07T14:59:02.145Z,27.20
2022-08-07T15:01:42.859Z,27.00
2022-08-07T15:04:19.032Z,27.00
2022-08-07T15:06:48.941Z,26.90
2022-08-07T15:09:58.273Z,26.90
2022-08-07T15:12:26.121Z,27.00
2022-08-07T15:15:09.275Z,26.90
2022-08-07T15:17:57.631Z,26.90
2022-08-07T15:20:35.749Z,26.80
2022-08-07T15:26:20.872Z,26.70
2022-08-07T15:32:01.161Z,26.60
2022-08-07T15:38:17.198Z,26.60
2022-08-07T15:40:34.272Z,26.60
2022-08-07T15:43:52.977Z,26.60
2022-08-07T15:46:31.728Z,26.60
2022-08-07T15:49:15.161Z,26.60
2022-08-07T15:54:33.930Z,26.40
2022-08-07T15:57:05.076Z,26.40
2022-08-07T15:59:39.747Z,26.30
2022-08-07T16:02:23.604Z,26.20
2022-08-07T16:04:57.899Z,26.20
2022-08-07T16:08:31.423Z,26.10
2022-08-07T16:10:25.689Z,26.00
2022-08-07T16:13:59.158Z,26.00
2022-08-07T16:16:48.583Z,26.00
2022-08-07T16:19:19.915Z,26.00
2022-08-07T16:22:36.386Z,26.00
2022-08-07T16:25:52.461Z,26.00
2022-08-07T16:30:07.483Z,26.00
2022-08-07T16:31:51.128Z,26.00
2022-08-07T16:34:48.508Z,26.10
2022-08-07T16:38:06.925Z,26.00
2022-08-07T16:40:36.003Z,26.00
2022-08-07T16:43:24.706Z,26.00
2022-08-07T16:47:07.741Z,26.10
2022-08-07T16:50:26.636Z,26.00
2022-08-07T16:54:02.608Z,25.90
2022-08-07T16:56:14.863Z,25.80
2022-08-07T16:59:11.364Z,25.80
2022-08-07T17:02:51.213Z,25.70
2022-08-07T17:06:19.399Z,25.60
2022-08-07T17:08:05.792Z,25.60
2022-08-07T17:10:54.201Z,25.50
2022-08-07T17:14:18.937Z,25.50
2022-08-07T17:16:58.501Z,25.40
2022-08-07T17:20:02.055Z,25.40
2022-08-07T17:22:45.640Z,25.40
2022-08-07T17:25:20.159Z,25.40
2022-08-07T17:28:17.685Z,25.30
2022-08-07T17:31:16.637Z,25.30
2022-08-07T17:34:32.657Z,25.20
2022-08-07T17:37:09.206Z,25.20
2022-08-07T17:40:08.661Z,25.30
2022-08-07T17:42:36.000Z,25.30
2022-08-07T17:45:47.276Z,25.30
2022-08-07T17:48:31.047Z,25.10
2022-08-07T17:51:07.593Z,25.30
2022-08-07T17:54:01.474Z,25.20
2022-08-07T17:56:49.395Z,25.20
2022-08-07T17:59:19.932Z,25.10
2022-08-07T18:01:56.584Z,25.00
2022-08-07T18:04:31.111Z,25.00
2022-08-07T18:07:20.480Z,24.90
2022-08-07T18:10:05.834Z,24.90
2022-08-07T18:12:52.755Z,24.90
2022-08-07T18:15:32.865Z,24.80
2022-08-07T18:18:45.478Z,24.80
2022-08-07T18:21:40.157Z,24.80
2022-08-07T18:24:09.038Z,24.80
2022-08-07T18:26:57.467Z,24.80
2022-08-07T18:30:08.295Z,24.80
2022-08-07T18:32:35.783Z,24.70
2022-08-07T18:35:52.112Z,24.70
2022-08-07T18:38:55.628Z,24.70
2022-08-07T18:41:45.891Z,24.70
2022-08-07T18:44:25.002Z,24.60
2022-08-07T18:47:23.997Z,24.60
2022-08-07T18:50:32.779Z,24.60
2022-08-07T18:53:13.922Z,24.60
2022-08-07T18:56:08.128Z,24.60
2022-08-07T18:59:05.023Z,24.60
2022-08-07T19:02:32.103Z,24.50
2022-08-07T19:04:39.693Z,24.50
2022-08-07T19:07:51.543Z,24.50
2022-08-07T19:10:49.621Z,24.50
2022-08-07T19:13:37.518Z,24.50
2022-08-07T19:16:43.087Z,24.40
2022-08-07T19:19:31.629Z,24.50
2022-08-07T19:22:07.484Z,24.40
2022-08-07T19:24:46.320Z,24.40
2022-08-07T19:29:03.546Z,24.40
2022-08-07T19:31:06.452Z,24.40
2022-08-07T19:33:08.287Z,24.40
2022-08-07T19:35:42.312Z,24.40
2022-08-07T19:38:17.544Z,24.40
2022-08-07T19:40:49.463Z,24.30
2022-08-07T19:43:43.677Z,24.30
2022-08-07T19:46:14.643Z,24.30
2022-08-07T19:48:53.506Z,24.30
2022-08-07T19:51:51.174Z,24.30
2022-08-07T19:54:44.012Z,24.20
2022-08-07T19:58:02.491Z,24.10
2022-08-07T19:59:53.267Z,24.10
2022-08-07T20:02:31.495Z,24.10
2022-08-07T20:05:00.430Z,24.00
2022-08-07T20:07:46.132Z,23.90
2022-08-07T20:10:36.940Z,24.00
2022-08-07T20:13:06.918Z,23.90
2022-08-07T20:15:50.556Z,23.90
2022-08-07T20:18:19.957Z,23.90
2022-08-07T20:20:47.624Z,23.80
2022-08-07T20:23:32.789Z,23.80
2022-08-07T20:26:09.893Z,23.80
2022-08-07T20:28:40.620Z,23.80
2022-08-07T20:31:21.027Z,23.80
2022-08-07T20:33:56.345Z,23.80
2022-08-07T20:36:26.742Z,23.80
2022-08-07T20:39:00.678Z,23.80
2022-08-07T20:41:42.525Z,23.70
2022-08-07T20:44:13.161Z,23.70
2022-08-07T20:46:44.202Z,23.60
2022-08-07T20:50:01.030Z,23.70
2022-08-07T20:52:13.772Z,23.70
2022-08-07T20:54:53.479Z,23.60
2022-08-07T20:57:38.632Z,23.50
2022-08-07T21:00:17.863Z,23.60
2022-08-07T21:02:58.846Z,23.60
2022-08-07T21:05:50.550Z,23.50
2022-08-07T21:08:36.661Z,23.60
2022-08-07T21:11:07.459Z,23.50
2022-08-07T21:13:57.595Z,23.50
2022-08-07T21:18:00.485Z,23.50
2022-08-07T21:19:51.125Z,23.40
2022-08-07T21:22:19.751Z,23.50
2022-08-07T21:24:49.629Z,23.40
2022-08-07T21:27:39.920Z,23.40
2022-08-07T21:30:18.107Z,23.40
2022-08-07T21:32:52.864Z,23.30
2022-08-07T21:35:34.970Z,23.40
2022-08-07T21:38:16.312Z,23.30
2022-08-07T21:41:10.984Z,23.30
2022-08-07T21:44:07.775Z,23.30
2022-08-07T21:46:52.611Z,23.30
2022-08-07T21:50:00.913Z,23.30
2022-08-07T21:52:48.391Z,23.30
2022-08-07T21:55:30.063Z,23.30
2022-08-07T21:58:32.293Z,23.20
2022-08-07T22:01:21.182Z,23.20
2022-08-07T22:04:20.380Z,23.20
2022-08-07T22:07:00.748Z,23.20
2022-08-07T22:09:53.694Z,23.20
2022-08-07T22:12:31.467Z,23.10
2022-08-07T22:16:44.425Z,23.20
2022-08-07T22:18:14.534Z,23.10
2022-08-07T22:20:52.921Z,23.10
2022-08-07T22:23:36.201Z,23.00
2022-08-07T22:26:35.253Z,23.10
2022-08-07T22:29:17.472Z,23.00
2022-08-07T22:32:12.350Z,23.00
2022-08-07T22:34:56.285Z,23.00
2022-08-07T22:38:02.687Z,23.00
2022-08-07T22:41:03.492Z,23.00
2022-08-07T22:43:58.827Z,22.90
2022-08-07T22:47:03.881Z,22.80
2022-08-07T22:50:10.996Z,22.90
2022-08-07T22:53:06.490Z,22.90
2022-08-07T22:55:51.033Z,22.90
2022-08-07T22:58:28.166Z,22.90
2022-08-07T23:01:12.710Z,22.80
2022-08-07T23:03:58.883Z,22.80
2022-08-07T23:06:51.344Z,22.90
2022-08-07T23:10:05.945Z,22.80
2022-08-07T23:12:46.537Z,22.80
2022-08-07T23:16:06.795Z,22.80
2022-08-07T23:19:14.525Z,22.90
2022-08-07T23:21:55.275Z,22.90
2022-08-07T23:24:27.901Z,22.90
2022-08-07T23:27:33.764Z,22.90
2022-08-07T23:30:39.253Z,22.80
2022-08-07T23:34:21.983Z,22.80
2022-08-07T23:36:29.131Z,22.80
2022-08-07T23:39:22.140Z,22.80
2022-08-07T23:42:09.603Z,22.80
2022-08-07T23:44:45.245Z,22.80
2022-08-07T23:47:30.739Z,22.80
2022-08-07T23:50:36.839Z,22.80
2022-08-07T23:53:21.981Z,22.80
2022-08-07T23:56:11.897Z,22.80
2022-08-07T23:58:59.933Z,22.70
